sensor_id;sensor_type;location;lat;lon;timestamp;pressure;altitude;pressure_sealevel;temperature;humidity
46211;BME280;52144;48.040;-1.594;2023-05-24T00:00:08;101881.88;;;14.51;79.10
46211;BME280;52144;48.040;-1.594;2023-05-24T00:02:38;101887.69;;;14.81;77.78
46211;BME280;52144;48.040;-1.594;2023-05-24T00:05:08;101883.03;;;14.66;78.19
46211;BME280;52144;48.040;-1.594;2023-05-24T00:07:38;101874.44;;;14.78;76.84
46211;BME280;52144;48.040;-1.594;2023-05-24T00:10:07;101870.41;;;15.08;75.92
46211;BME280;52144;48.040;-1.594;2023-05-24T00:12:35;101870.38;;;14.89;75.97
46211;BME280;52144;48.040;-1.594;2023-05-24T00:15:03;101866.91;;;14.87;76.62
46211;BME280;52144;48.040;-1.594;2023-05-24T00:17:31;101864.78;;;14.54;77.40
46211;BME280;52144;48.040;-1.594;2023-05-24T00:20:08;101860.88;;;14.40;78.68
46211;BME280;52144;48.040;-1.594;2023-05-24T00:22:39;101861.13;;;14.14;79.00
46211;BME280;52144;48.040;-1.594;2023-05-24T00:25:07;101860.91;;;14.18;79.58
46211;BME280;52144;48.040;-1.594;2023-05-24T00:27:35;101858.78;;;14.06;79.30
46211;BME280;52144;48.040;-1.594;2023-05-24T00:30:04;101860.84;;;13.99;79.65
46211;BME280;52144;48.040;-1.594;2023-05-24T00:32:32;101860.75;;;14.23;78.54
46211;BME280;52144;48.040;-1.594;2023-05-24T00:35:00;101858.72;;;14.49;76.82
46211;BME280;52144;48.040;-1.594;2023-05-24T00:37:28;101860.47;;;14.50;77.50
46211;BME280;52144;48.040;-1.594;2023-05-24T00:39:57;101856.84;;;14.51;77.13
46211;BME280;52144;48.040;-1.594;2023-05-24T00:42:25;101856.31;;;14.42;76.51
46211;BME280;52144;48.040;-1.594;2023-05-24T00:44:53;101847.47;;;14.40;76.54
46211;BME280;52144;48.040;-1.594;2023-05-24T00:47:21;101837.50;;;14.23;78.06
46211;BME280;52144;48.040;-1.594;2023-05-24T00:49:49;101838.09;;;14.30;77.18
46211;BME280;52144;48.040;-1.594;2023-05-24T00:52:17;101817.84;;;14.43;76.48
46211;BME280;52144;48.040;-1.594;2023-05-24T00:54:45;101830.44;;;14.41;76.37
46211;BME280;52144;48.040;-1.594;2023-05-24T00:57:15;101832.59;;;14.33;76.26
46211;BME280;52144;48.040;-1.594;2023-05-24T00:59:44;101827.63;;;14.03;77.64
46211;BME280;52144;48.040;-1.594;2023-05-24T01:02:12;101834.78;;;13.82;79.83
46211;BME280;52144;48.040;-1.594;2023-05-24T01:04:40;101823.47;;;13.96;76.84
46211;BME280;52144;48.040;-1.594;2023-05-24T01:07:14;101836.59;;;13.82;78.51
46211;BME280;52144;48.040;-1.594;2023-05-24T01:09:53;101831.22;;;13.82;78.80
46211;BME280;52144;48.040;-1.594;2023-05-24T01:12:28;101838.91;;;13.90;77.72
46211;BME280;52144;48.040;-1.594;2023-05-24T01:15:06;101836.25;;;14.10;77.31
46211;BME280;52144;48.040;-1.594;2023-05-24T01:17:39;101834.00;;;14.42;75.80
46211;BME280;52144;48.040;-1.594;2023-05-24T01:20:16;101829.78;;;14.57;74.69
46211;BME280;52144;48.040;-1.594;2023-05-24T01:23:04;101837.47;;;14.44;74.14
46211;BME280;52144;48.040;-1.594;2023-05-24T01:25:52;101837.00;;;14.55;72.70
46211;BME280;52144;48.040;-1.594;2023-05-24T01:28:22;101836.41;;;14.48;73.80
46211;BME280;52144;48.040;-1.594;2023-05-24T01:30:51;101841.84;;;14.26;73.79
46211;BME280;52144;48.040;-1.594;2023-05-24T01:33:19;101834.72;;;13.84;75.93
46211;BME280;52144;48.040;-1.594;2023-05-24T01:35:47;101836.19;;;14.12;75.31
46211;BME280;52144;48.040;-1.594;2023-05-24T01:38:15;101827.22;;;13.92;75.08
46211;BME280;52144;48.040;-1.594;2023-05-24T01:40:46;101821.88;;;13.92;75.47
46211;BME280;52144;48.040;-1.594;2023-05-24T01:43:20;101824.63;;;14.11;73.81
46211;BME280;52144;48.040;-1.594;2023-05-24T01:46:00;101825.19;;;13.97;75.70
46211;BME280;52144;48.040;-1.594;2023-05-24T01:48:34;101831.44;;;14.18;74.14
46211;BME280;52144;48.040;-1.594;2023-05-24T01:51:06;101831.34;;;13.57;76.00
46211;BME280;52144;48.040;-1.594;2023-05-24T01:53:40;101824.09;;;13.81;76.21
46211;BME280;52144;48.040;-1.594;2023-05-24T01:56:12;101826.09;;;13.76;76.37
46211;BME280;52144;48.040;-1.594;2023-05-24T01:58:43;101821.69;;;13.31;77.58
46211;BME280;52144;48.040;-1.594;2023-05-24T02:01:13;101819.34;;;13.21;77.72
46211;BME280;52144;48.040;-1.594;2023-05-24T02:03:41;101829.84;;;12.80;79.33
46211;BME280;52144;48.040;-1.594;2023-05-24T02:06:09;101833.09;;;12.89;79.56
46211;BME280;52144;48.040;-1.594;2023-05-24T02:08:37;101833.09;;;12.89;79.63
46211;BME280;52144;48.040;-1.594;2023-05-24T02:11:05;101834.84;;;12.90;78.91
46211;BME280;52144;48.040;-1.594;2023-05-24T02:13:33;101832.81;;;12.73;79.90
46211;BME280;52144;48.040;-1.594;2023-05-24T02:16:01;101826.31;;;12.55;78.66
46211;BME280;52144;48.040;-1.594;2023-05-24T02:18:32;101830.47;;;12.87;76.95
46211;BME280;52144;48.040;-1.594;2023-05-24T02:21:00;101830.59;;;12.84;77.04
46211;BME280;52144;48.040;-1.594;2023-05-24T02:23:28;101829.50;;;13.13;75.62
46211;BME280;52144;48.040;-1.594;2023-05-24T02:25:56;101836.00;;;13.06;76.16
46211;BME280;52144;48.040;-1.594;2023-05-24T02:28:24;101844.84;;;13.08;75.17
46211;BME280;52144;48.040;-1.594;2023-05-24T02:30:51;101843.97;;;13.08;75.35
46211;BME280;52144;48.040;-1.594;2023-05-24T02:33:19;101839.00;;;12.73;76.18
46211;BME280;52144;48.040;-1.594;2023-05-24T02:35:52;101842.91;;;12.88;75.14
46211;BME280;52144;48.040;-1.594;2023-05-24T02:38:20;101851.81;;;12.65;77.44
46211;BME280;52144;48.040;-1.594;2023-05-24T02:40:47;101845.34;;;12.71;76.74
46211;BME280;52144;48.040;-1.594;2023-05-24T02:43:16;101848.22;;;12.66;75.70
46211;BME280;52144;48.040;-1.594;2023-05-24T02:45:44;101848.03;;;12.45;75.98
46211;BME280;52144;48.040;-1.594;2023-05-24T02:48:11;101852.28;;;12.51;77.84
46211;BME280;52144;48.040;-1.594;2023-05-24T02:50:39;101856.72;;;12.52;75.94
46211;BME280;52144;48.040;-1.594;2023-05-24T02:53:09;101857.25;;;12.37;75.63
46211;BME280;52144;48.040;-1.594;2023-05-24T02:55:37;101859.03;;;12.38;77.21
46211;BME280;52144;48.040;-1.594;2023-05-24T02:58:05;101857.72;;;12.50;74.44
46211;BME280;52144;48.040;-1.594;2023-05-24T03:00:33;101857.22;;;12.38;75.77
46211;BME280;52144;48.040;-1.594;2023-05-24T03:03:01;101856.22;;;12.41;74.86
46211;BME280;52144;48.040;-1.594;2023-05-24T03:05:29;101850.16;;;12.61;74.23
46211;BME280;52144;48.040;-1.594;2023-05-24T03:07:57;101849.78;;;12.47;74.04
46211;BME280;52144;48.040;-1.594;2023-05-24T03:10:26;101856.59;;;12.30;73.97
46211;BME280;52144;48.040;-1.594;2023-05-24T03:12:54;101863.53;;;11.82;77.31
46211;BME280;52144;48.040;-1.594;2023-05-24T03:15:21;101855.50;;;12.11;75.00
46211;BME280;52144;48.040;-1.594;2023-05-24T03:17:49;101859.47;;;11.71;77.33
46211;BME280;52144;48.040;-1.594;2023-05-24T03:20:17;101843.75;;;11.88;75.90
46211;BME280;52144;48.040;-1.594;2023-05-24T03:22:46;101853.81;;;11.80;75.79
46211;BME280;52144;48.040;-1.594;2023-05-24T03:25:14;101847.19;;;11.93;74.67
46211;BME280;52144;48.040;-1.594;2023-05-24T03:27:43;101851.34;;;12.27;73.95
46211;BME280;52144;48.040;-1.594;2023-05-24T03:30:12;101845.22;;;11.98;75.44
46211;BME280;52144;48.040;-1.594;2023-05-24T03:32:39;101846.41;;;11.90;75.48
46211;BME280;52144;48.040;-1.594;2023-05-24T03:35:08;101838.78;;;11.77;75.00
46211;BME280;52144;48.040;-1.594;2023-05-24T03:37:37;101841.78;;;11.40;75.72
46211;BME280;52144;48.040;-1.594;2023-05-24T03:40:06;101841.84;;;11.37;77.10
46211;BME280;52144;48.040;-1.594;2023-05-24T03:42:34;101838.78;;;11.49;77.18
46211;BME280;52144;48.040;-1.594;2023-05-24T03:45:04;101843.31;;;11.47;76.67
46211;BME280;52144;48.040;-1.594;2023-05-24T03:47:32;101838.94;;;11.16;77.52
46211;BME280;52144;48.040;-1.594;2023-05-24T03:50:00;101833.84;;;11.07;76.46
46211;BME280;52144;48.040;-1.594;2023-05-24T03:52:28;101842.50;;;11.72;73.87
46211;BME280;52144;48.040;-1.594;2023-05-24T03:54:55;101840.63;;;11.47;73.71
46211;BME280;52144;48.040;-1.594;2023-05-24T03:57:23;101849.66;;;11.99;71.97
46211;BME280;52144;48.040;-1.594;2023-05-24T03:59:51;101839.34;;;11.89;72.13
46211;BME280;52144;48.040;-1.594;2023-05-24T04:02:20;101841.09;;;12.15;70.30
46211;BME280;52144;48.040;-1.594;2023-05-24T04:04:48;101843.69;;;11.91;71.07
46211;BME280;52144;48.040;-1.594;2023-05-24T04:07:16;101847.56;;;11.81;70.85
46211;BME280;52144;48.040;-1.594;2023-05-24T04:09:44;101845.06;;;11.48;71.66
46211;BME280;52144;48.040;-1.594;2023-05-24T04:12:11;101853.84;;;11.52;72.45
46211;BME280;52144;48.040;-1.594;2023-05-24T04:14:39;101848.81;;;11.42;73.54
46211;BME280;52144;48.040;-1.594;2023-05-24T04:17:07;101850.88;;;11.61;72.24
46211;BME280;52144;48.040;-1.594;2023-05-24T04:19:37;101859.31;;;11.75;71.88
46211;BME280;52144;48.040;-1.594;2023-05-24T04:22:04;101857.06;;;11.91;69.52
46211;BME280;52144;48.040;-1.594;2023-05-24T04:24:32;101857.34;;;11.26;72.03
46211;BME280;52144;48.040;-1.594;2023-05-24T04:27:00;101861.44;;;11.64;70.95
46211;BME280;52144;48.040;-1.594;2023-05-24T04:29:28;101861.44;;;11.92;69.86
46211;BME280;52144;48.040;-1.594;2023-05-24T04:31:58;101863.22;;;11.93;69.94
46211;BME280;52144;48.040;-1.594;2023-05-24T04:34:27;101867.28;;;12.05;69.23
46211;BME280;52144;48.040;-1.594;2023-05-24T04:37:00;101858.13;;;12.12;68.34
46211;BME280;52144;48.040;-1.594;2023-05-24T04:39:29;101863.22;;;11.93;69.45
46211;BME280;52144;48.040;-1.594;2023-05-24T04:41:56;101862.41;;;11.91;68.17
46211;BME280;52144;48.040;-1.594;2023-05-24T04:44:26;101869.19;;;12.01;68.81
46211;BME280;52144;48.040;-1.594;2023-05-24T04:46:53;101866.09;;;11.85;68.31
46211;BME280;52144;48.040;-1.594;2023-05-24T04:49:21;101860.16;;;11.49;69.01
46211;BME280;52144;48.040;-1.594;2023-05-24T04:51:49;101848.06;;;11.94;69.24
46211;BME280;52144;48.040;-1.594;2023-05-24T04:54:21;101850.06;;;12.14;67.72
46211;BME280;52144;48.040;-1.594;2023-05-24T04:56:49;101849.81;;;11.95;68.80
46211;BME280;52144;48.040;-1.594;2023-05-24T04:59:17;101855.66;;;12.06;68.81
46211;BME280;52144;48.040;-1.594;2023-05-24T05:01:45;101856.44;;;12.10;65.90
46211;BME280;52144;48.040;-1.594;2023-05-24T05:04:13;101848.38;;;12.36;66.30
46211;BME280;52144;48.040;-1.594;2023-05-24T05:06:41;101847.84;;;12.52;65.79
46211;BME280;52144;48.040;-1.594;2023-05-24T05:09:10;101851.59;;;12.46;65.20
46211;BME280;52144;48.040;-1.594;2023-05-24T05:11:40;101859.63;;;12.46;65.06
46211;BME280;52144;48.040;-1.594;2023-05-24T05:14:08;101857.81;;;12.47;65.12
46211;BME280;52144;48.040;-1.594;2023-05-24T05:16:37;101858.91;;;12.66;64.88
46211;BME280;52144;48.040;-1.594;2023-05-24T05:19:06;101856.88;;;12.22;65.29
46211;BME280;52144;48.040;-1.594;2023-05-24T05:21:34;101861.84;;;12.07;65.87
46211;BME280;52144;48.040;-1.594;2023-05-24T05:24:02;101864.56;;;12.57;64.09
46211;BME280;52144;48.040;-1.594;2023-05-24T05:26:30;101862.44;;;12.41;64.33
46211;BME280;52144;48.040;-1.594;2023-05-24T05:28:59;101868.16;;;12.81;63.64
46211;BME280;52144;48.040;-1.594;2023-05-24T05:31:28;101868.78;;;12.88;62.25
46211;BME280;52144;48.040;-1.594;2023-05-24T05:33:56;101864.84;;;12.98;61.51
46211;BME280;52144;48.040;-1.594;2023-05-24T05:36:24;101867.34;;;12.79;63.16
46211;BME280;52144;48.040;-1.594;2023-05-24T05:38:51;101874.34;;;12.58;64.02
46211;BME280;52144;48.040;-1.594;2023-05-24T05:41:20;101872.69;;;13.02;62.50
46211;BME280;52144;48.040;-1.594;2023-05-24T05:43:47;101868.22;;;12.79;62.87
46211;BME280;52144;48.040;-1.594;2023-05-24T05:46:17;101872.59;;;13.05;61.55
46211;BME280;52144;48.040;-1.594;2023-05-24T05:48:46;101875.88;;;12.65;63.20
46211;BME280;52144;48.040;-1.594;2023-05-24T05:51:14;101871.00;;;12.76;62.38
46211;BME280;52144;48.040;-1.594;2023-05-24T05:53:42;101875.53;;;12.74;62.24
46211;BME280;52144;48.040;-1.594;2023-05-24T05:56:10;101867.41;;;13.01;62.04
46211;BME280;52144;48.040;-1.594;2023-05-24T05:58:37;101876.03;;;13.09;62.08
46211;BME280;52144;48.040;-1.594;2023-05-24T06:01:05;101875.50;;;12.99;62.76
46211;BME280;52144;48.040;-1.594;2023-05-24T06:03:35;101876.78;;;12.89;61.85
46211;BME280;52144;48.040;-1.594;2023-05-24T06:06:03;101885.34;;;12.99;62.43
46211;BME280;52144;48.040;-1.594;2023-05-24T06:08:31;101883.72;;;12.70;62.59
46211;BME280;52144;48.040;-1.594;2023-05-24T06:11:01;101881.03;;;12.95;61.30
46211;BME280;52144;48.040;-1.594;2023-05-24T06:13:28;101884.81;;;12.64;61.88
46211;BME280;52144;48.040;-1.594;2023-05-24T06:15:56;101880.72;;;13.02;61.72
46211;BME280;52144;48.040;-1.594;2023-05-24T06:18:25;101874.75;;;13.19;60.28
46211;BME280;52144;48.040;-1.594;2023-05-24T06:20:57;101877.13;;;13.51;58.75
46211;BME280;52144;48.040;-1.594;2023-05-24T06:23:24;101875.47;;;13.70;58.08
46211;BME280;52144;48.040;-1.594;2023-05-24T06:25:52;101874.91;;;13.38;57.75
46211;BME280;52144;48.040;-1.594;2023-05-24T06:28:21;101878.19;;;13.69;55.89
46211;BME280;52144;48.040;-1.594;2023-05-24T06:30:49;101877.34;;;13.44;56.21
46211;BME280;52144;48.040;-1.594;2023-05-24T06:33:17;101878.75;;;13.77;56.57
46211;BME280;52144;48.040;-1.594;2023-05-24T06:35:44;101869.75;;;13.78;54.98
46211;BME280;52144;48.040;-1.594;2023-05-24T06:38:14;101880.97;;;14.10;55.49
46211;BME280;52144;48.040;-1.594;2023-05-24T06:40:43;101874.22;;;14.21;56.10
46211;BME280;52144;48.040;-1.594;2023-05-24T06:43:11;101870.13;;;13.47;55.20
46211;BME280;52144;48.040;-1.594;2023-05-24T06:45:39;101880.91;;;14.11;55.08
46211;BME280;52144;48.040;-1.594;2023-05-24T06:48:07;101887.41;;;14.47;54.42
46211;BME280;52144;48.040;-1.594;2023-05-24T06:50:35;101885.53;;;14.49;54.63
46211;BME280;52144;48.040;-1.594;2023-05-24T06:53:07;101885.78;;;14.01;53.12
46211;BME280;52144;48.040;-1.594;2023-05-24T06:55:37;101888.09;;;14.31;53.06
46211;BME280;52144;48.040;-1.594;2023-05-24T06:58:05;101895.44;;;14.26;54.48
46211;BME280;52144;48.040;-1.594;2023-05-24T07:00:33;101897.78;;;14.13;53.85
46211;BME280;52144;48.040;-1.594;2023-05-24T07:03:01;101902.13;;;14.16;54.27
46211;BME280;52144;48.040;-1.594;2023-05-24T07:05:29;101900.44;;;14.35;53.18
46211;BME280;52144;48.040;-1.594;2023-05-24T07:07:56;101904.81;;;14.16;52.63
46211;BME280;52144;48.040;-1.594;2023-05-24T07:10:24;101908.31;;;14.18;52.47
46211;BME280;52144;48.040;-1.594;2023-05-24T07:12:53;101912.13;;;14.75;51.54
46211;BME280;52144;48.040;-1.594;2023-05-24T07:15:21;101906.72;;;15.16;51.10
46211;BME280;52144;48.040;-1.594;2023-05-24T07:17:49;101916.09;;;14.67;51.68
46211;BME280;52144;48.040;-1.594;2023-05-24T07:20:18;101915.28;;;14.64;50.97
46211;BME280;52144;48.040;-1.594;2023-05-24T07:22:46;101913.03;;;14.95;52.55
46211;BME280;52144;48.040;-1.594;2023-05-24T07:25:14;101908.03;;;15.06;51.54
46211;BME280;52144;48.040;-1.594;2023-05-24T07:27:42;101909.41;;;15.16;51.92
46211;BME280;52144;48.040;-1.594;2023-05-24T07:30:12;101910.03;;;15.02;51.08
46211;BME280;52144;48.040;-1.594;2023-05-24T07:32:57;101919.81;;;14.83;49.83
46211;BME280;52144;48.040;-1.594;2023-05-24T07:35:25;101926.81;;;15.27;49.69
46211;BME280;52144;48.040;-1.594;2023-05-24T07:37:54;101929.78;;;15.00;49.15
46211;BME280;52144;48.040;-1.594;2023-05-24T07:40:22;101930.50;;;14.84;49.98
46211;BME280;52144;48.040;-1.594;2023-05-24T07:42:50;101931.97;;;15.88;49.63
46211;BME280;52144;48.040;-1.594;2023-05-24T07:45:19;101928.59;;;15.07;50.22
46211;BME280;52144;48.040;-1.594;2023-05-24T07:47:47;101942.72;;;15.88;49.16
46211;BME280;52144;48.040;-1.594;2023-05-24T07:50:15;101943.22;;;15.96;48.31
46211;BME280;52144;48.040;-1.594;2023-05-24T07:52:43;101948.63;;;16.14;48.34
46211;BME280;52144;48.040;-1.594;2023-05-24T07:55:11;101942.38;;;15.77;48.79
46211;BME280;52144;48.040;-1.594;2023-05-24T07:57:39;101945.22;;;16.10;49.01
46211;BME280;52144;48.040;-1.594;2023-05-24T08:00:08;101941.13;;;16.20;47.88
46211;BME280;52144;48.040;-1.594;2023-05-24T08:02:42;101944.31;;;16.29;48.58
46211;BME280;52144;48.040;-1.594;2023-05-24T08:05:12;101939.59;;;15.78;49.48
46211;BME280;52144;48.040;-1.594;2023-05-24T08:07:40;101938.28;;;15.68;49.05
46211;BME280;52144;48.040;-1.594;2023-05-24T08:10:09;101948.13;;;16.05;49.27
46211;BME280;52144;48.040;-1.594;2023-05-24T08:12:38;101950.75;;;16.07;48.84
46211;BME280;52144;48.040;-1.594;2023-05-24T08:15:06;101949.09;;;16.22;48.36
46211;BME280;52144;48.040;-1.594;2023-05-24T08:17:34;101949.44;;;16.33;48.43
46211;BME280;52144;48.040;-1.594;2023-05-24T08:20:04;101961.59;;;15.68;46.04
46211;BME280;52144;48.040;-1.594;2023-05-24T08:22:34;101960.25;;;16.14;46.27
46211;BME280;52144;48.040;-1.594;2023-05-24T08:25:03;101941.22;;;16.19;45.59
46211;BME280;52144;48.040;-1.594;2023-05-24T08:27:31;101951.66;;;16.25;46.00
46211;BME280;52144;48.040;-1.594;2023-05-24T08:30:00;101943.06;;;16.53;45.83
46211;BME280;52144;48.040;-1.594;2023-05-24T08:32:29;101939.47;;;16.35;45.08
46211;BME280;52144;48.040;-1.594;2023-05-24T08:34:57;101945.13;;;16.83;44.89
46211;BME280;52144;48.040;-1.594;2023-05-24T08:37:46;101943.50;;;16.79;45.20
46211;BME280;52144;48.040;-1.594;2023-05-24T08:40:15;101937.13;;;16.81;45.06
46211;BME280;52144;48.040;-1.594;2023-05-24T08:42:44;101938.69;;;16.68;45.05
46211;BME280;52144;48.040;-1.594;2023-05-24T08:45:13;101942.56;;;16.28;45.40
46211;BME280;52144;48.040;-1.594;2023-05-24T08:47:41;101951.94;;;16.90;44.63
46211;BME280;52144;48.040;-1.594;2023-05-24T08:50:09;101948.16;;;16.40;45.31
46211;BME280;52144;48.040;-1.594;2023-05-24T08:52:38;101938.34;;;17.09;45.25
46211;BME280;52144;48.040;-1.594;2023-05-24T08:55:10;101948.88;;;17.14;45.03
46211;BME280;52144;48.040;-1.594;2023-05-24T08:57:38;101945.06;;;17.34;44.92
46211;BME280;52144;48.040;-1.594;2023-05-24T09:00:09;101938.72;;;16.86;44.55
46211;BME280;52144;48.040;-1.594;2023-05-24T09:02:39;101934.84;;;17.40;44.63
46211;BME280;52144;48.040;-1.594;2023-05-24T09:05:10;101938.13;;;17.30;44.22
46211;BME280;52144;48.040;-1.594;2023-05-24T09:07:38;101926.66;;;17.42;44.79
46211;BME280;52144;48.040;-1.594;2023-05-24T09:10:09;101934.41;;;17.32;44.12
46211;BME280;52144;48.040;-1.594;2023-05-24T09:12:38;101935.41;;;17.63;44.21
46211;BME280;52144;48.040;-1.594;2023-05-24T09:15:07;101944.34;;;17.63;44.58
46211;BME280;52144;48.040;-1.594;2023-05-24T09:17:36;101930.53;;;17.70;44.06
46211;BME280;52144;48.040;-1.594;2023-05-24T09:20:05;101941.34;;;18.01;42.86
46211;BME280;52144;48.040;-1.594;2023-05-24T09:22:35;101929.56;;;18.02;43.41
46211;BME280;52144;48.040;-1.594;2023-05-24T09:25:11;101920.13;;;17.95;42.73
46211;BME280;52144;48.040;-1.594;2023-05-24T09:27:41;101930.78;;;18.13;43.35
46211;BME280;52144;48.040;-1.594;2023-05-24T09:30:13;101924.66;;;18.25;43.28
46211;BME280;52144;48.040;-1.594;2023-05-24T09:32:53;101930.09;;;18.39;43.10
46211;BME280;52144;48.040;-1.594;2023-05-24T09:35:22;101938.63;;;19.07;43.78
46211;BME280;52144;48.040;-1.594;2023-05-24T09:37:53;101924.00;;;18.36;41.72
46211;BME280;52144;48.040;-1.594;2023-05-24T09:40:24;101935.56;;;18.68;41.16
46211;BME280;52144;48.040;-1.594;2023-05-24T09:43:03;101928.34;;;19.13;42.71
46211;BME280;52144;48.040;-1.594;2023-05-24T09:45:31;101934.38;;;19.31;41.42
46211;BME280;52144;48.040;-1.594;2023-05-24T09:47:59;101937.47;;;18.66;40.78
46211;BME280;52144;48.040;-1.594;2023-05-24T09:50:30;101931.59;;;19.18;40.97
46211;BME280;52144;48.040;-1.594;2023-05-24T09:52:58;101932.56;;;19.32;40.63
46211;BME280;52144;48.040;-1.594;2023-05-24T09:55:28;101923.66;;;19.73;40.28
46211;BME280;52144;48.040;-1.594;2023-05-24T09:58:01;101921.59;;;19.62;40.23
46211;BME280;52144;48.040;-1.594;2023-05-24T10:00:31;101914.19;;;19.51;39.90
46211;BME280;52144;48.040;-1.594;2023-05-24T10:03:03;101913.41;;;20.05;40.22
46211;BME280;52144;48.040;-1.594;2023-05-24T10:05:33;101911.81;;;19.88;38.45
46211;BME280;52144;48.040;-1.594;2023-05-24T10:08:02;101913.88;;;19.70;38.73
46211;BME280;52144;48.040;-1.594;2023-05-24T10:10:32;101915.56;;;20.13;38.97
46211;BME280;52144;48.040;-1.594;2023-05-24T10:13:01;101906.09;;;20.33;38.87
46211;BME280;52144;48.040;-1.594;2023-05-24T10:15:29;101909.63;;;19.80;38.46
46211;BME280;52144;48.040;-1.594;2023-05-24T10:17:57;101908.56;;;19.83;37.14
46211;BME280;52144;48.040;-1.594;2023-05-24T10:20:26;101920.38;;;20.22;38.97
46211;BME280;52144;48.040;-1.594;2023-05-24T10:22:58;101910.09;;;20.27;38.09
46211;BME280;52144;48.040;-1.594;2023-05-24T10:25:27;101912.88;;;20.53;37.45
46211;BME280;52144;48.040;-1.594;2023-05-24T10:27:59;101915.19;;;21.23;38.47
46211;BME280;52144;48.040;-1.594;2023-05-24T10:30:31;101915.47;;;20.54;37.84
46211;BME280;52144;48.040;-1.594;2023-05-24T10:33:01;101910.00;;;20.81;38.16
46211;BME280;52144;48.040;-1.594;2023-05-24T10:35:31;101914.81;;;20.51;36.68
46211;BME280;52144;48.040;-1.594;2023-05-24T10:38:05;101928.44;;;19.82;37.12
46211;BME280;52144;48.040;-1.594;2023-05-24T10:40:34;101907.53;;;19.98;36.29
46211;BME280;52144;48.040;-1.594;2023-05-24T10:43:04;101911.84;;;20.81;36.47
46211;BME280;52144;48.040;-1.594;2023-05-24T10:45:35;101913.69;;;20.80;37.06
46211;BME280;52144;48.040;-1.594;2023-05-24T10:48:34;101908.59;;;20.89;36.23
46211;BME280;52144;48.040;-1.594;2023-05-24T10:51:28;101912.59;;;20.70;35.22
46211;BME280;52144;48.040;-1.594;2023-05-24T10:53:56;101905.34;;;20.71;35.53
46211;BME280;52144;48.040;-1.594;2023-05-24T10:56:26;101907.06;;;20.72;36.84
46211;BME280;52144;48.040;-1.594;2023-05-24T10:58:59;101911.09;;;20.66;35.52
46211;BME280;52144;48.040;-1.594;2023-05-24T11:01:29;101911.09;;;20.79;35.53
46211;BME280;52144;48.040;-1.594;2023-05-24T11:04:07;101907.81;;;20.74;34.88
46211;BME280;52144;48.040;-1.594;2023-05-24T11:06:44;101899.91;;;21.09;34.86
46211;BME280;52144;48.040;-1.594;2023-05-24T11:09:14;101895.25;;;21.11;35.20
46211;BME280;52144;48.040;-1.594;2023-05-24T11:11:46;101896.13;;;20.99;35.16
46211;BME280;52144;48.040;-1.594;2023-05-24T11:14:19;101900.00;;;21.08;34.67
46211;BME280;52144;48.040;-1.594;2023-05-24T11:16:48;101887.63;;;21.29;35.68
46211;BME280;52144;48.040;-1.594;2023-05-24T11:19:18;101893.50;;;21.10;35.05
46211;BME280;52144;48.040;-1.594;2023-05-24T11:21:47;101893.06;;;21.29;36.19
46211;BME280;52144;48.040;-1.594;2023-05-24T11:24:16;101898.91;;;21.73;35.26
46211;BME280;52144;48.040;-1.594;2023-05-24T11:26:44;101886.34;;;21.72;34.57
46211;BME280;52144;48.040;-1.594;2023-05-24T11:29:13;101886.38;;;21.59;33.61
46211;BME280;52144;48.040;-1.594;2023-05-24T11:31:48;101880.69;;;21.75;35.41
46211;BME280;52144;48.040;-1.594;2023-05-24T11:34:16;101876.97;;;21.39;34.17
46211;BME280;52144;48.040;-1.594;2023-05-24T11:36:44;101871.56;;;21.76;35.40
46211;BME280;52144;48.040;-1.594;2023-05-24T11:39:13;101878.78;;;21.88;35.03
46211;BME280;52144;48.040;-1.594;2023-05-24T11:41:41;101877.13;;;22.10;34.75
46211;BME280;52144;48.040;-1.594;2023-05-24T11:44:10;101869.66;;;21.65;33.72
46211;BME280;52144;48.040;-1.594;2023-05-24T11:46:39;101874.88;;;21.92;33.68
46211;BME280;52144;48.040;-1.594;2023-05-24T11:49:13;101871.81;;;22.32;36.78
46211;BME280;52144;48.040;-1.594;2023-05-24T11:51:41;101865.47;;;22.56;34.86
46211;BME280;52144;48.040;-1.594;2023-05-24T11:54:09;101863.97;;;22.52;33.64
46211;BME280;52144;48.040;-1.594;2023-05-24T11:56:37;101866.69;;;22.63;35.50
46211;BME280;52144;48.040;-1.594;2023-05-24T11:59:08;101863.66;;;22.32;34.81
46211;BME280;52144;48.040;-1.594;2023-05-24T12:01:38;101848.03;;;22.12;34.45
46211;BME280;52144;48.040;-1.594;2023-05-24T12:04:06;101853.34;;;22.37;33.47
46211;BME280;52144;48.040;-1.594;2023-05-24T12:06:38;101855.50;;;22.68;34.66
46211;BME280;52144;48.040;-1.594;2023-05-24T12:09:06;101842.75;;;22.46;33.69
46211;BME280;52144;48.040;-1.594;2023-05-24T12:11:39;101850.81;;;22.70;34.76
46211;BME280;52144;48.040;-1.594;2023-05-24T12:14:11;101846.34;;;22.57;34.87
46211;BME280;52144;48.040;-1.594;2023-05-24T12:16:41;101843.81;;;21.96;34.26
46211;BME280;52144;48.040;-1.594;2023-05-24T12:19:12;101838.50;;;22.06;34.22
46211;BME280;52144;48.040;-1.594;2023-05-24T12:22:00;101830.53;;;22.62;33.91
46211;BME280;52144;48.040;-1.594;2023-05-24T12:24:30;101828.22;;;23.14;34.79
46211;BME280;52144;48.040;-1.594;2023-05-24T12:26:59;101834.13;;;22.86;33.74
46211;BME280;52144;48.040;-1.594;2023-05-24T12:29:31;101828.47;;;23.22;32.96
46211;BME280;52144;48.040;-1.594;2023-05-24T12:32:01;101838.84;;;23.29;34.12
46211;BME280;52144;48.040;-1.594;2023-05-24T12:34:29;101838.31;;;23.35;32.90
46211;BME280;52144;48.040;-1.594;2023-05-24T12:36:58;101826.78;;;23.54;33.01
46211;BME280;52144;48.040;-1.594;2023-05-24T12:39:28;101830.63;;;23.51;34.55
46211;BME280;52144;48.040;-1.594;2023-05-24T12:42:00;101832.03;;;23.67;34.06
46211;BME280;52144;48.040;-1.594;2023-05-24T12:44:29;101827.13;;;24.04;33.70
46211;BME280;52144;48.040;-1.594;2023-05-24T12:47:00;101824.34;;;23.83;33.35
46211;BME280;52144;48.040;-1.594;2023-05-24T12:49:29;101811.63;;;24.05;33.40
46211;BME280;52144;48.040;-1.594;2023-05-24T12:51:57;101807.44;;;23.79;33.61